sensor_id;sensor_type;location;lat;lon;timestamp;P1;durP1;ratioP1;P2;durP2;ratioP2
30948;SDS011;17637;51.984;21.208;2024-02-15T00:02:14;14.80;;;8.43;;
30948;SDS011;17637;51.984;21.208;2024-02-15T00:04:46;14.98;;;6.95;;
30948;SDS011;17637;51.984;21.208;2024-02-15T00:07:18;16.13;;;9.50;;
30948;SDS011;17637;51.984;21.208;2024-02-15T00:09:54;26.02;;;12.75;;
30948;SDS011;17637;51.984;21.208;2024-02-15T00:12:26;28.25;;;15.23;;
30948;SDS011;17637;51.984;21.208;2024-02-15T00:14:57;22.13;;;10.35;;
30948;SDS011;17637;51.984;21.208;2024-02-15T00:17:30;19.52;;;9.82;;
30948;SDS011;17637;51.984;21.208;2024-02-15T00:20:02;14.02;;;8.27;;
30948;SDS011;17637;51.984;21.208;2024-02-15T00:22:41;16.05;;;8.65;;
30948;SDS011;17637;51.984;21.208;2024-02-15T00:25:12;20.85;;;10.73;;
30948;SDS011;17637;51.984;21.208;2024-02-15T00:27:45;11.50;;;7.25;;
30948;SDS011;17637;51.984;21.208;2024-02-15T00:30:17;13.60;;;8.07;;
30948;SDS011;17637;51.984;21.208;2024-02-15T00:32:49;29.25;;;11.15;;
30948;SDS011;17637;51.984;21.208;2024-02-15T00:35:21;19.08;;;9.57;;
30948;SDS011;17637;51.984;21.208;2024-02-15T00:37:53;12.55;;;8.13;;
30948;SDS011;17637;51.984;21.208;2024-02-15T00:40:25;13.82;;;8.02;;
30948;SDS011;17637;51.984;21.208;2024-02-15T00:42:57;16.98;;;10.20;;
30948;SDS011;17637;51.984;21.208;2024-02-15T00:45:29;21.77;;;12.15;;
30948;SDS011;17637;51.984;21.208;2024-02-15T00:48:00;26.88;;;13.65;;
30948;SDS011;17637;51.984;21.208;2024-02-15T00:50:33;33.45;;;16.58;;
30948;SDS011;17637;51.984;21.208;2024-02-15T00:53:05;34.10;;;17.83;;
30948;SDS011;17637;51.984;21.208;2024-02-15T00:55:36;25.10;;;13.95;;
30948;SDS011;17637;51.984;21.208;2024-02-15T00:58:08;27.63;;;13.85;;
30948;SDS011;17637;51.984;21.208;2024-02-15T01:00:40;26.05;;;14.55;;
30948;SDS011;17637;51.984;21.208;2024-02-15T01:03:12;19.63;;;11.73;;
30948;SDS011;17637;51.984;21.208;2024-02-15T01:05:44;20.65;;;10.00;;
30948;SDS011;17637;51.984;21.208;2024-02-15T01:08:16;16.02;;;10.02;;
30948;SDS011;17637;51.984;21.208;2024-02-15T01:10:47;20.20;;;11.55;;
30948;SDS011;17637;51.984;21.208;2024-02-15T01:13:19;24.60;;;12.13;;
30948;SDS011;17637;51.984;21.208;2024-02-15T01:15:51;22.48;;;13.63;;
30948;SDS011;17637;51.984;21.208;2024-02-15T01:18:23;21.20;;;12.75;;
30948;SDS011;17637;51.984;21.208;2024-02-15T01:20:55;20.15;;;11.30;;
30948;SDS011;17637;51.984;21.208;2024-02-15T01:23:27;19.08;;;11.15;;
30948;SDS011;17637;51.984;21.208;2024-02-15T01:25:59;13.43;;;8.85;;
30948;SDS011;17637;51.984;21.208;2024-02-15T01:28:32;14.13;;;8.50;;
30948;SDS011;17637;51.984;21.208;2024-02-15T01:31:04;13.32;;;8.82;;
30948;SDS011;17637;51.984;21.208;2024-02-15T01:33:38;14.55;;;8.90;;
30948;SDS011;17637;51.984;21.208;2024-02-15T01:36:13;17.95;;;8.95;;
30948;SDS011;17637;51.984;21.208;2024-02-15T01:38:49;17.23;;;9.40;;
30948;SDS011;17637;51.984;21.208;2024-02-15T01:41:20;14.60;;;8.68;;
30948;SDS011;17637;51.984;21.208;2024-02-15T01:43:52;14.05;;;8.40;;
30948;SDS011;17637;51.984;21.208;2024-02-15T01:46:24;16.23;;;8.45;;
30948;SDS011;17637;51.984;21.208;2024-02-15T01:48:56;14.77;;;8.07;;
30948;SDS011;17637;51.984;21.208;2024-02-15T01:51:28;15.50;;;8.48;;
30948;SDS011;17637;51.984;21.208;2024-02-15T01:54:01;15.45;;;8.55;;
30948;SDS011;17637;51.984;21.208;2024-02-15T01:56:34;16.83;;;8.57;;
30948;SDS011;17637;51.984;21.208;2024-02-15T01:59:08;15.32;;;8.68;;
30948;SDS011;17637;51.984;21.208;2024-02-15T02:01:40;14.57;;;8.38;;
30948;SDS011;17637;51.984;21.208;2024-02-15T02:04:12;11.63;;;8.25;;
30948;SDS011;17637;51.984;21.208;2024-02-15T02:06:44;12.98;;;8.45;;
30948;SDS011;17637;51.984;21.208;2024-02-15T02:09:16;14.23;;;8.25;;
30948;SDS011;17637;51.984;21.208;2024-02-15T02:11:48;13.57;;;7.65;;
30948;SDS011;17637;51.984;21.208;2024-02-15T02:14:22;15.45;;;8.63;;
30948;SDS011;17637;51.984;21.208;2024-02-15T02:16:54;15.65;;;9.45;;
30948;SDS011;17637;51.984;21.208;2024-02-15T02:19:26;14.15;;;7.85;;
30948;SDS011;17637;51.984;21.208;2024-02-15T02:21:59;13.57;;;8.05;;
30948;SDS011;17637;51.984;21.208;2024-02-15T02:24:32;14.60;;;9.07;;
30948;SDS011;17637;51.984;21.208;2024-02-15T02:27:08;13.32;;;8.30;;
30948;SDS011;17637;51.984;21.208;2024-02-15T02:29:42;13.05;;;8.40;;
30948;SDS011;17637;51.984;21.208;2024-02-15T02:32:17;12.63;;;7.18;;
30948;SDS011;17637;51.984;21.208;2024-02-15T02:34:49;13.73;;;8.27;;
30948;SDS011;17637;51.984;21.208;2024-02-15T02:37:21;13.60;;;7.82;;
30948;SDS011;17637;51.984;21.208;2024-02-15T02:39:52;16.45;;;8.57;;
30948;SDS011;17637;51.984;21.208;2024-02-15T02:42:24;15.77;;;8.52;;
30948;SDS011;17637;51.984;21.208;2024-02-15T02:44:56;12.82;;;8.38;;
30948;SDS011;17637;51.984;21.208;2024-02-15T02:47:28;12.57;;;8.05;;
30948;SDS011;17637;51.984;21.208;2024-02-15T02:50:00;13.68;;;7.25;;
30948;SDS011;17637;51.984;21.208;2024-02-15T02:52:32;15.73;;;8.63;;
30948;SDS011;17637;51.984;21.208;2024-02-15T02:55:05;12.30;;;8.20;;
30948;SDS011;17637;51.984;21.208;2024-02-15T02:57:39;13.30;;;7.38;;
30948;SDS011;17637;51.984;21.208;2024-02-15T03:00:12;15.75;;;8.23;;
30948;SDS011;17637;51.984;21.208;2024-02-15T03:02:47;14.38;;;8.20;;
30948;SDS011;17637;51.984;21.208;2024-02-15T03:05:19;13.77;;;8.45;;
30948;SDS011;17637;51.984;21.208;2024-02-15T03:07:53;13.15;;;7.47;;
30948;SDS011;17637;51.984;21.208;2024-02-15T03:10:24;15.55;;;8.00;;
30948;SDS011;17637;51.984;21.208;2024-02-15T03:12:56;12.43;;;7.47;;
30948;SDS011;17637;51.984;21.208;2024-02-15T03:15:29;16.45;;;8.05;;
30948;SDS011;17637;51.984;21.208;2024-02-15T03:18:02;13.88;;;8.30;;
30948;SDS011;17637;51.984;21.208;2024-02-15T03:20:38;11.60;;;7.35;;
30948;SDS011;17637;51.984;21.208;2024-02-15T03:23:10;15.55;;;8.68;;
30948;SDS011;17637;51.984;21.208;2024-02-15T03:25:43;11.55;;;7.60;;
30948;SDS011;17637;51.984;21.208;2024-02-15T03:28:15;17.13;;;7.68;;
30948;SDS011;17637;51.984;21.208;2024-02-15T03:30:47;13.13;;;8.30;;
30948;SDS011;17637;51.984;21.208;2024-02-15T03:33:18;14.00;;;8.02;;
30948;SDS011;17637;51.984;21.208;2024-02-15T03:35:52;14.10;;;8.48;;
30948;SDS011;17637;51.984;21.208;2024-02-15T03:38:24;14.07;;;7.80;;
30948;SDS011;17637;51.984;21.208;2024-02-15T03:40:56;14.23;;;8.57;;
30948;SDS011;17637;51.984;21.208;2024-02-15T03:43:27;15.27;;;8.30;;
30948;SDS011;17637;51.984;21.208;2024-02-15T03:45:59;13.43;;;8.38;;
30948;SDS011;17637;51.984;21.208;2024-02-15T03:48:31;14.70;;;8.07;;
30948;SDS011;17637;51.984;21.208;2024-02-15T03:51:04;13.10;;;8.20;;
30948;SDS011;17637;51.984;21.208;2024-02-15T03:53:37;14.32;;;8.60;;
30948;SDS011;17637;51.984;21.208;2024-02-15T03:56:08;13.73;;;8.27;;
30948;SDS011;17637;51.984;21.208;2024-02-15T03:58:40;12.32;;;7.80;;
30948;SDS011;17637;51.984;21.208;2024-02-15T04:01:12;12.88;;;7.40;;
30948;SDS011;17637;51.984;21.208;2024-02-15T04:03:47;13.27;;;8.27;;
30948;SDS011;17637;51.984;21.208;2024-02-15T04:06:19;14.20;;;8.50;;
30948;SDS011;17637;51.984;21.208;2024-02-15T04:08:51;15.50;;;8.32;;
30948;SDS011;17637;51.984;21.208;2024-02-15T04:11:23;13.25;;;8.95;;
30948;SDS011;17637;51.984;21.208;2024-02-15T04:13:55;13.57;;;8.45;;
30948;SDS011;17637;51.984;21.208;2024-02-15T04:16:29;14.45;;;8.68;;
30948;SDS011;17637;51.984;21.208;2024-02-15T04:19:05;13.52;;;9.07;;
30948;SDS011;17637;51.984;21.208;2024-02-15T04:21:37;17.30;;;10.02;;
30948;SDS011;17637;51.984;21.208;2024-02-15T04:24:10;13.23;;;8.20;;
30948;SDS011;17637;51.984;21.208;2024-02-15T04:26:42;17.42;;;10.32;;
30948;SDS011;17637;51.984;21.208;2024-02-15T04:29:14;15.82;;;9.73;;
30948;SDS011;17637;51.984;21.208;2024-02-15T04:31:47;15.88;;;9.13;;
30948;SDS011;17637;51.984;21.208;2024-02-15T04:34:21;15.35;;;9.13;;
30948;SDS011;17637;51.984;21.208;2024-02-15T04:36:54;16.40;;;10.25;;
30948;SDS011;17637;51.984;21.208;2024-02-15T04:39:27;20.52;;;10.15;;
30948;SDS011;17637;51.984;21.208;2024-02-15T04:42:02;20.33;;;11.38;;
30948;SDS011;17637;51.984;21.208;2024-02-15T04:44:41;19.20;;;10.88;;
30948;SDS011;17637;51.984;21.208;2024-02-15T04:47:13;18.88;;;10.45;;
30948;SDS011;17637;51.984;21.208;2024-02-15T04:49:45;19.00;;;10.25;;
30948;SDS011;17637;51.984;21.208;2024-02-15T04:52:16;17.65;;;10.00;;
30948;SDS011;17637;51.984;21.208;2024-02-15T04:54:49;15.65;;;9.65;;
30948;SDS011;17637;51.984;21.208;2024-02-15T04:57:20;15.18;;;9.20;;
30948;SDS011;17637;51.984;21.208;2024-02-15T04:59:53;17.23;;;10.25;;
30948;SDS011;17637;51.984;21.208;2024-02-15T05:02:26;15.70;;;9.90;;
30948;SDS011;17637;51.984;21.208;2024-02-15T05:04:58;17.83;;;10.15;;
30948;SDS011;17637;51.984;21.208;2024-02-15T05:07:29;15.52;;;10.13;;
30948;SDS011;17637;51.984;21.208;2024-02-15T05:10:01;17.40;;;10.80;;
30948;SDS011;17637;51.984;21.208;2024-02-15T05:12:33;16.33;;;9.20;;
30948;SDS011;17637;51.984;21.208;2024-02-15T05:15:05;17.55;;;10.65;;
30948;SDS011;17637;51.984;21.208;2024-02-15T05:17:44;17.98;;;10.77;;
30948;SDS011;17637;51.984;21.208;2024-02-15T05:20:16;14.77;;;9.45;;
30948;SDS011;17637;51.984;21.208;2024-02-15T05:22:48;16.92;;;10.13;;
30948;SDS011;17637;51.984;21.208;2024-02-15T05:25:21;16.95;;;9.63;;
30948;SDS011;17637;51.984;21.208;2024-02-15T05:27:56;16.95;;;9.80;;
30948;SDS011;17637;51.984;21.208;2024-02-15T05:30:29;17.75;;;10.27;;
30948;SDS011;17637;51.984;21.208;2024-02-15T05:33:04;15.85;;;9.77;;
30948;SDS011;17637;51.984;21.208;2024-02-15T05:35:36;17.25;;;10.38;;
30948;SDS011;17637;51.984;21.208;2024-02-15T05:38:11;19.67;;;11.10;;
30948;SDS011;17637;51.984;21.208;2024-02-15T05:40:46;16.35;;;10.00;;
30948;SDS011;17637;51.984;21.208;2024-02-15T05:43:19;18.40;;;10.70;;
30948;SDS011;17637;51.984;21.208;2024-02-15T05:45:51;18.23;;;10.75;;
30948;SDS011;17637;51.984;21.208;2024-02-15T05:48:24;19.55;;;11.35;;
30948;SDS011;17637;51.984;21.208;2024-02-15T05:50:56;17.67;;;10.85;;
30948;SDS011;17637;51.984;21.208;2024-02-15T05:53:29;17.88;;;11.45;;
30948;SDS011;17637;51.984;21.208;2024-02-15T05:56:01;20.23;;;11.25;;
30948;SDS011;17637;51.984;21.208;2024-02-15T05:58:35;19.25;;;10.75;;
30948;SDS011;17637;51.984;21.208;2024-02-15T06:01:08;18.90;;;10.43;;
30948;SDS011;17637;51.984;21.208;2024-02-15T06:03:43;15.82;;;9.75;;
30948;SDS011;17637;51.984;21.208;2024-02-15T06:06:17;17.30;;;10.85;;
30948;SDS011;17637;51.984;21.208;2024-02-15T06:08:49;21.40;;;11.95;;
30948;SDS011;17637;51.984;21.208;2024-02-15T06:11:21;18.17;;;11.23;;
30948;SDS011;17637;51.984;21.208;2024-02-15T06:13:53;16.42;;;11.57;;
30948;SDS011;17637;51.984;21.208;2024-02-15T06:16:25;20.35;;;11.77;;
30948;SDS011;17637;51.984;21.208;2024-02-15T06:18:57;19.05;;;12.23;;
30948;SDS011;17637;51.984;21.208;2024-02-15T06:21:29;19.42;;;12.13;;
30948;SDS011;17637;51.984;21.208;2024-02-15T06:24:01;18.45;;;10.93;;
30948;SDS011;17637;51.984;21.208;2024-02-15T06:26:33;23.98;;;11.73;;
30948;SDS011;17637;51.984;21.208;2024-02-15T06:29:05;20.85;;;12.98;;
30948;SDS011;17637;51.984;21.208;2024-02-15T06:31:55;25.15;;;13.00;;
30948;SDS011;17637;51.984;21.208;2024-02-15T06:34:46;19.80;;;10.70;;
30948;SDS011;17637;51.984;21.208;2024-02-15T06:37:37;21.05;;;12.75;;
30948;SDS011;17637;51.984;21.208;2024-02-15T06:40:28;24.63;;;13.48;;
30948;SDS011;17637;51.984;21.208;2024-02-15T06:43:02;20.65;;;12.68;;
30948;SDS011;17637;51.984;21.208;2024-02-15T06:45:34;20.77;;;12.63;;
30948;SDS011;17637;51.984;21.208;2024-02-15T06:48:08;20.05;;;11.27;;
30948;SDS011;17637;51.984;21.208;2024-02-15T06:50:40;23.90;;;13.25;;
30948;SDS011;17637;51.984;21.208;2024-02-15T06:53:12;24.70;;;14.15;;
30948;SDS011;17637;51.984;21.208;2024-02-15T06:55:44;24.02;;;13.07;;
30948;SDS011;17637;51.984;21.208;2024-02-15T06:58:16;20.83;;;13.00;;
30948;SDS011;17637;51.984;21.208;2024-02-15T07:00:48;24.63;;;14.73;;
30948;SDS011;17637;51.984;21.208;2024-02-15T07:03:21;24.48;;;14.25;;
30948;SDS011;17637;51.984;21.208;2024-02-15T07:05:55;19.92;;;13.20;;
30948;SDS011;17637;51.984;21.208;2024-02-15T07:08:27;22.52;;;13.38;;
30948;SDS011;17637;51.984;21.208;2024-02-15T07:11:01;21.05;;;13.32;;
30948;SDS011;17637;51.984;21.208;2024-02-15T07:13:35;26.33;;;14.98;;
30948;SDS011;17637;51.984;21.208;2024-02-15T07:16:10;42.65;;;19.67;;
30948;SDS011;17637;51.984;21.208;2024-02-15T07:18:43;24.35;;;14.82;;
30948;SDS011;17637;51.984;21.208;2024-02-15T07:21:15;32.42;;;18.27;;
30948;SDS011;17637;51.984;21.208;2024-02-15T07:23:48;26.70;;;15.95;;
30948;SDS011;17637;51.984;21.208;2024-02-15T07:26:20;26.52;;;16.08;;
30948;SDS011;17637;51.984;21.208;2024-02-15T07:28:55;27.13;;;16.77;;
30948;SDS011;17637;51.984;21.208;2024-02-15T07:31:28;23.08;;;14.93;;
30948;SDS011;17637;51.984;21.208;2024-02-15T07:34:01;24.35;;;15.73;;
30948;SDS011;17637;51.984;21.208;2024-02-15T07:36:35;26.00;;;16.20;;
30948;SDS011;17637;51.984;21.208;2024-02-15T07:39:07;23.48;;;14.70;;
30948;SDS011;17637;51.984;21.208;2024-02-15T07:41:46;28.10;;;17.83;;
30948;SDS011;17637;51.984;21.208;2024-02-15T07:44:19;33.45;;;18.55;;
30948;SDS011;17637;51.984;21.208;2024-02-15T07:46:50;27.35;;;18.02;;
30948;SDS011;17637;51.984;21.208;2024-02-15T07:49:22;26.15;;;17.55;;
30948;SDS011;17637;51.984;21.208;2024-02-15T07:51:54;28.95;;;18.17;;
30948;SDS011;17637;51.984;21.208;2024-02-15T07:54:26;27.35;;;18.65;;
30948;SDS011;17637;51.984;21.208;2024-02-15T07:57:00;28.13;;;19.00;;
30948;SDS011;17637;51.984;21.208;2024-02-15T07:59:31;29.10;;;17.40;;
30948;SDS011;17637;51.984;21.208;2024-02-15T08:02:03;27.83;;;17.48;;
30948;SDS011;17637;51.984;21.208;2024-02-15T08:04:36;25.52;;;16.70;;
30948;SDS011;17637;51.984;21.208;2024-02-15T08:07:12;35.85;;;20.63;;
30948;SDS011;17637;51.984;21.208;2024-02-15T08:09:45;29.55;;;17.67;;
30948;SDS011;17637;51.984;21.208;2024-02-15T08:12:18;24.77;;;16.42;;
30948;SDS011;17637;51.984;21.208;2024-02-15T08:14:50;35.90;;;20.02;;
30948;SDS011;17637;51.984;21.208;2024-02-15T08:17:22;36.72;;;19.10;;
30948;SDS011;17637;51.984;21.208;2024-02-15T08:19:54;30.05;;;17.85;;
30948;SDS011;17637;51.984;21.208;2024-02-15T08:22:26;37.70;;;21.60;;
30948;SDS011;17637;51.984;21.208;2024-02-15T08:24:58;31.08;;;20.58;;
30948;SDS011;17637;51.984;21.208;2024-02-15T08:27:30;32.95;;;19.35;;
30948;SDS011;17637;51.984;21.208;2024-02-15T08:30:04;39.55;;;22.23;;
30948;SDS011;17637;51.984;21.208;2024-02-15T08:32:40;32.63;;;19.95;;
30948;SDS011;17637;51.984;21.208;2024-02-15T08:35:14;38.22;;;21.42;;
30948;SDS011;17637;51.984;21.208;2024-02-15T08:37:46;60.90;;;32.70;;
30948;SDS011;17637;51.984;21.208;2024-02-15T08:40:19;64.40;;;38.10;;
30948;SDS011;17637;51.984;21.208;2024-02-15T08:42:56;46.15;;;28.15;;
30948;SDS011;17637;51.984;21.208;2024-02-15T08:45:28;31.33;;;20.48;;
30948;SDS011;17637;51.984;21.208;2024-02-15T08:48:00;35.92;;;21.38;;
30948;SDS011;17637;51.984;21.208;2024-02-15T08:50:36;30.38;;;19.83;;
30948;SDS011;17637;51.984;21.208;2024-02-15T08:53:08;28.75;;;18.88;;
30948;SDS011;17637;51.984;21.208;2024-02-15T08:55:39;27.17;;;18.25;;
30948;SDS011;17637;51.984;21.208;2024-02-15T08:58:11;30.52;;;19.05;;
30948;SDS011;17637;51.984;21.208;2024-02-15T09:00:43;31.65;;;19.77;;
30948;SDS011;17637;51.984;21.208;2024-02-15T09:03:18;31.23;;;19.08;;
30948;SDS011;17637;51.984;21.208;2024-02-15T09:05:50;37.00;;;21.48;;
30948;SDS011;17637;51.984;21.208;2024-02-15T09:08:22;31.23;;;19.58;;
30948;SDS011;17637;51.984;21.208;2024-02-15T09:10:54;31.42;;;17.48;;
30948;SDS011;17637;51.984;21.208;2024-02-15T09:13:26;30.55;;;19.45;;
30948;SDS011;17637;51.984;21.208;2024-02-15T09:15:58;24.45;;;16.60;;
30948;SDS011;17637;51.984;21.208;2024-02-15T09:18:29;29.50;;;17.52;;
30948;SDS011;17637;51.984;21.208;2024-02-15T09:21:02;29.33;;;18.33;;
30948;SDS011;17637;51.984;21.208;2024-02-15T09:23:35;36.70;;;22.15;;
30948;SDS011;17637;51.984;21.208;2024-02-15T09:26:07;30.20;;;19.33;;
30948;SDS011;17637;51.984;21.208;2024-02-15T09:28:41;30.00;;;19.77;;
30948;SDS011;17637;51.984;21.208;2024-02-15T09:31:13;32.97;;;19.77;;
30948;SDS011;17637;51.984;21.208;2024-02-15T09:33:45;33.13;;;20.95;;
30948;SDS011;17637;51.984;21.208;2024-02-15T09:36:17;31.25;;;19.85;;
30948;SDS011;17637;51.984;21.208;2024-02-15T09:38:49;29.98;;;20.27;;
30948;SDS011;17637;51.984;21.208;2024-02-15T09:41:21;27.70;;;18.80;;
30948;SDS011;17637;51.984;21.208;2024-02-15T09:43:53;30.92;;;19.25;;
30948;SDS011;17637;51.984;21.208;2024-02-15T09:46:25;33.22;;;19.70;;
30948;SDS011;17637;51.984;21.208;2024-02-15T09:48:57;31.95;;;18.67;;
30948;SDS011;17637;51.984;21.208;2024-02-15T09:51:30;34.42;;;20.88;;
30948;SDS011;17637;51.984;21.208;2024-02-15T09:54:04;31.63;;;19.83;;
30948;SDS011;17637;51.984;21.208;2024-02-15T09:56:37;30.42;;;19.30;;
30948;SDS011;17637;51.984;21.208;2024-02-15T09:59:09;30.15;;;19.65;;
30948;SDS011;17637;51.984;21.208;2024-02-15T10:01:42;35.25;;;22.75;;
30948;SDS011;17637;51.984;21.208;2024-02-15T10:04:17;38.33;;;23.00;;
30948;SDS011;17637;51.984;21.208;2024-02-15T10:06:48;33.83;;;23.23;;
30948;SDS011;17637;51.984;21.208;2024-02-15T10:12:02;36.10;;;23.33;;
30948;SDS011;17637;51.984;21.208;2024-02-15T10:14:38;36.88;;;23.95;;
30948;SDS011;17637;51.984;21.208;2024-02-15T10:17:10;37.92;;;24.23;;
30948;SDS011;17637;51.984;21.208;2024-02-15T10:19:42;31.98;;;21.60;;
30948;SDS011;17637;51.984;21.208;2024-02-15T10:22:15;35.90;;;23.27;;
30948;SDS011;17637;51.984;21.208;2024-02-15T10:24:47;34.58;;;22.88;;
30948;SDS011;17637;51.984;21.208;2024-02-15T10:27:19;36.65;;;23.88;;
30948;SDS011;17637;51.984;21.208;2024-02-15T10:29:55;35.33;;;23.45;;
30948;SDS011;17637;51.984;21.208;2024-02-15T10:32:46;38.50;;;24.05;;
30948;SDS011;17637;51.984;21.208;2024-02-15T10:35:20;28.95;;;20.98;;
30948;SDS011;17637;51.984;21.208;2024-02-15T10:40:41;36.40;;;24.77;;
30948;SDS011;17637;51.984;21.208;2024-02-15T10:43:14;39.42;;;25.85;;
30948;SDS011;17637;51.984;21.208;2024-02-15T10:45:48;38.15;;;22.23;;
30948;SDS011;17637;51.984;21.208;2024-02-15T10:48:24;33.47;;;21.88;;
30948;SDS011;17637;51.984;21.208;2024-02-15T10:50:56;34.97;;;24.10;;
30948;SDS011;17637;51.984;21.208;2024-02-15T10:53:31;45.03;;;27.50;;
30948;SDS011;17637;51.984;21.208;2024-02-15T10:59:31;39.42;;;24.38;;
30948;SDS011;17637;51.984;21.208;2024-02-15T11:01:50;36.40;;;23.70;;
30948;SDS011;17637;51.984;21.208;2024-02-15T11:04:30;36.30;;;23.75;;
30948;SDS011;17637;51.984;21.208;2024-02-15T11:07:06;34.72;;;23.98;;
30948;SDS011;17637;51.984;21.208;2024-02-15T11:09:39;38.38;;;25.02;;
30948;SDS011;17637;51.984;21.208;2024-02-15T11:12:11;44.85;;;28.40;;
30948;SDS011;17637;51.984;21.208;2024-02-15T11:14:46;39.63;;;25.42;;
30948;SDS011;17637;51.984;21.208;2024-02-15T11:20:58;39.35;;;25.58;;
30948;SDS011;17637;51.984;21.208;2024-02-15T11:23:05;41.22;;;26.08;;
30948;SDS011;17637;51.984;21.208;2024-02-15T11:25:37;41.45;;;27.05;;
30948;SDS011;17637;51.984;21.208;2024-02-15T11:30:55;37.67;;;22.38;;
30948;SDS011;17637;51.984;21.208;2024-02-15T11:33:33;36.22;;;22.98;;
30948;SDS011;17637;51.984;21.208;2024-02-15T11:36:11;66.82;;;33.95;;
30948;SDS011;17637;51.984;21.208;2024-02-15T11:38:44;39.13;;;25.55;;
30948;SDS011;17637;51.984;21.208;2024-02-15T11:41:19;42.53;;;25.25;;
30948;SDS011;17637;51.984;21.208;2024-02-15T11:43:52;38.10;;;23.70;;
30948;SDS011;17637;51.984;21.208;2024-02-15T11:46:28;38.60;;;23.70;;
30948;SDS011;17637;51.984;21.208;2024-02-15T11:49:02;33.50;;;22.95;;
30948;SDS011;17637;51.984;21.208;2024-02-15T11:51:36;33.03;;;22.70;;
30948;SDS011;17637;51.984;21.208;2024-02-15T11:54:09;40.03;;;25.20;;
30948;SDS011;17637;51.984;21.208;2024-02-15T11:59:20;32.00;;;21.80;;
30948;SDS011;17637;51.984;21.208;2024-02-15T12:02:03;32.08;;;21.38;;
30948;SDS011;17637;51.984;21.208;2024-02-15T12:04:54;37.30;;;23.95;;
30948;SDS011;17637;51.984;21.208;2024-02-15T12:07:44;37.35;;;23.50;;
30948;SDS011;17637;51.984;21.208;2024-02-15T12:10:58;32.73;;;20.83;;
30948;SDS011;17637;51.984;21.208;2024-02-15T12:13:51;33.90;;;20.70;;
30948;SDS011;17637;51.984;21.208;2024-02-15T12:16:42;33.63;;;21.83;;
30948;SDS011;17637;51.984;21.208;2024-02-15T12:19:32;31.58;;;20.67;;
30948;SDS011;17637;51.984;21.208;2024-02-15T12:22:06;36.92;;;21.33;;
30948;SDS011;17637;51.984;21.208;2024-02-15T12:24:40;31.05;;;22.08;;
30948;SDS011;17637;51.984;21.208;2024-02-15T12:27:13;31.60;;;20.90;;
30948;SDS011;17637;51.984;21.208;2024-02-15T12:29:45;33.15;;;21.58;;
30948;SDS011;17637;51.984;21.208;2024-02-15T12:32:24;33.03;;;20.65;;
30948;SDS011;17637;51.984;21.208;2024-02-15T12:38:02;35.20;;;21.60;;
30948;SDS011;17637;51.984;21.208;2024-02-15T12:40:40;33.28;;;21.55;;
30948;SDS011;17637;51.984;21.208;2024-02-15T12:43:16;31.67;;;20.70;;
30948;SDS011;17637;51.984;21.208;2024-02-15T12:45:49;31.73;;;20.10;;
30948;SDS011;17637;51.984;21.208;2024-02-15T12:48:20;36.00;;;20.85;;
30948;SDS011;17637;51.984;21.208;2024-02-15T12:50:52;33.25;;;21.17;;
30948;SDS011;17637;51.984;21.208;2024-02-15T12:53:25;31.73;;;19.75;;
30948;SDS011;17637;51.984;21.208;2024-02-15T12:55:58;31.13;;;19.70;;
30948;SDS011;17637;51.984;21.208;2024-02-15T12:58:30;29.95;;;19.98;;
30948;SDS011;17637;51.984;21.208;2024-02-15T13:01:02;29.77;;;19.73;;
30948;SDS011;17637;51.984;21.208;2024-02-15T13:03:35;26.38;;;19.73;;
30948;SDS011;17637;51.984;21.208;2024-02-15T13:06:08;32.22;;;19.63;;
30948;SDS011;17637;51.984;21.208;2024-02-15T13:08:40;32.10;;;20.48;;
30948;SDS011;17637;51.984;21.208;2024-02-15T13:11:12;28.10;;;18.55;;
30948;SDS011;17637;51.984;21.208;2024-02-15T13:13:44;31.52;;;20.65;;
30948;SDS011;17637;51.984;21.208;2024-02-15T13:16:16;30.23;;;21.00;;
30948;SDS011;17637;51.984;21.208;2024-02-15T13:18:48;33.85;;;19.83;;
30948;SDS011;17637;51.984;21.208;2024-02-15T13:21:20;32.80;;;21.17;;
30948;SDS011;17637;51.984;21.208;2024-02-15T13:23:56;34.92;;;21.40;;
30948;SDS011;17637;51.984;21.208;2024-02-15T13:26:27;30.25;;;19.05;;
30948;SDS011;17637;51.984;21.208;2024-02-15T13:29:01;32.45;;;19.60;;
30948;SDS011;17637;51.984;21.208;2024-02-15T13:31:33;31.58;;;20.98;;
30948;SDS011;17637;51.984;21.208;2024-02-15T13:34:06;34.10;;;20.60;;
30948;SDS011;17637;51.984;21.208;2024-02-15T13:36:38;29.55;;;19.73;;
30948;SDS011;17637;51.984;21.208;2024-02-15T13:39:10;32.65;;;20.50;;
30948;SDS011;17637;51.984;21.208;2024-02-15T13:41:42;27.63;;;19.08;;
30948;SDS011;17637;51.984;21.208;2024-02-15T13:44:15;36.78;;;21.63;;
30948;SDS011;17637;51.984;21.208;2024-02-15T13:46:47;31.27;;;20.98;;
30948;SDS011;17637;51.984;21.208;2024-02-15T13:49:21;30.67;;;20.73;;
30948;SDS011;17637;51.984;21.208;2024-02-15T13:52:03;35.42;;;22.95;;
30948;SDS011;17637;51.984;21.208;2024-02-15T13:54:37;32.72;;;22.58;;
30948;SDS011;17637;51.984;21.208;2024-02-15T13:57:09;32.50;;;21.70;;
30948;SDS011;17637;51.984;21.208;2024-02-15T13:59:42;33.20;;;22.05;;
30948;SDS011;17637;51.984;21.208;2024-02-15T14:02:14;37.05;;;22.48;;
30948;SDS011;17637;51.984;21.208;2024-02-15T14:04:46;38.40;;;25.10;;
30948;SDS011;17637;51.984;21.208;2024-02-15T14:07:18;47.65;;;33.28;;
30948;SDS011;17637;51.984;21.208;2024-02-15T14:09:50;42.67;;;28.77;;
30948;SDS011;17637;51.984;21.208;2024-02-15T14:12:32;46.30;;;30.67;;
30948;SDS011;17637;51.984;21.208;2024-02-15T14:15:05;40.80;;;28.83;;
30948;SDS011;17637;51.984;21.208;2024-02-15T14:17:38;40.33;;;27.52;;
30948;SDS011;17637;51.984;21.208;2024-02-15T14:20:10;36.00;;;24.67;;
30948;SDS011;17637;51.984;21.208;2024-02-15T14:22:46;34.42;;;23.00;;
30948;SDS011;17637;51.984;21.208;2024-02-15T14:25:27;34.90;;;22.60;;
30948;SDS011;17637;51.984;21.208;2024-02-15T14:28:03;36.22;;;23.58;;
30948;SDS011;17637;51.984;21.208;2024-02-15T14:30:36;36.88;;;22.33;;
30948;SDS011;17637;51.984;21.208;2024-02-15T14:33:29;35.05;;;23.02;;
30948;SDS011;17637;51.984;21.208;2024-02-15T14:36:06;30.90;;;21.85;;
30948;SDS011;17637;51.984;21.208;2024-02-15T14:38:38;38.97;;;24.33;;
30948;SDS011;17637;51.984;21.208;2024-02-15T14:41:10;35.20;;;22.65;;
30948;SDS011;17637;51.984;21.208;2024-02-15T14:43:45;36.40;;;22.90;;
30948;SDS011;17637;51.984;21.208;2024-02-15T14:46:17;29.77;;;19.85;;
30948;SDS011;17637;51.984;21.208;2024-02-15T14:48:49;32.55;;;21.42;;
30948;SDS011;17637;51.984;21.208;2024-02-15T14:51:21;38.58;;;22.80;;
30948;SDS011;17637;51.984;21.208;2024-02-15T14:53:54;32.63;;;20.60;;
30948;SDS011;17637;51.984;21.208;2024-02-15T14:56:27;35.13;;;21.75;;
30948;SDS011;17637;51.984;21.208;2024-02-15T14:58:59;35.28;;;22.23;;
30948;SDS011;17637;51.984;21.208;2024-02-15T15:01:31;42.15;;;23.20;;
30948;SDS011;17637;51.984;21.208;2024-02-15T15:04:03;33.72;;;20.08;;
30948;SDS011;17637;51.984;21.208;2024-02-15T15:06:38;32.63;;;20.88;;
30948;SDS011;17637;51.984;21.208;2024-02-15T15:09:29;31.55;;;19.58;;